Time;durP1;ratioP1;P1;durP2;ratioP2;P2;SDS_P1;SDS_P2;PMS_P1;PMS_P2;Temp;Humidity;BMP_temperature;BMP_pressure;BME280_temperature;BME280_humidity;BME280_pressure;Samples;Min_cycle;Max_cycle;Signal;HPM_P1;HPM_P2
2022/01/18 00:01:55;;;;;;;29.07;13.97;;;5.30;99.90;;;;;;5103335;28;20408;-62
2022/01/18 00:04:21;;;;;;;27.08;14.00;;;5.40;99.90;;;;;;5099038;28;20473;-63
2022/01/18 00:06:50;;;;;;;26.40;14.27;;;5.40;99.90;;;;;;5108918;28;20399;-62
2022/01/18 00:09:20;;;;;;;27.50;14.15;;;6.70;99.90;;;;;;5093926;28;20431;-63
2022/01/18 00:11:55;;;;;;;25.90;13.80;;;5.50;99.90;;;;;;5092112;28;20382;-61
2022/01/18 00:14:41;;;;;;;26.02;13.68;;;5.60;99.90;;;;;;5107960;28;20383;-62
2022/01/18 00:19:45;;;;;;;24.98;13.18;;;5.70;99.90;;;;;;5084255;28;20554;-61
2022/01/18 00:22:12;;;;;;;26.00;13.20;;;5.70;99.90;;;;;;5080691;28;20766;-61
2022/01/18 00:24:40;;;;;;;25.75;13.45;;;5.80;99.90;;;;;;5103297;28;20734;-61
2022/01/18 00:27:10;;;;;;;24.83;13.10;;;6.30;99.90;;;;;;5103920;28;20401;-61
2022/01/18 00:29:45;;;;;;;28.13;14.15;;;5.90;99.90;;;;;;5091648;28;20462;-61
2022/01/18 00:34:44;;;;;;;30.73;15.38;;;5.60;99.90;;;;;;5091851;28;20389;-61
2022/01/18 00:39:40;;;;;;;26.50;13.75;;;5.70;99.90;;;;;;5090697;28;20382;-61
2022/01/18 00:42:07;;;;;;;26.20;14.13;;;5.60;99.90;;;;;;5092296;28;20459;-61
2022/01/18 00:44:32;;;;;;;26.17;13.63;;;5.60;99.90;;;;;;5091280;28;20382;-61
2022/01/18 00:46:58;;;;;;;32.20;14.93;;;5.70;99.90;;;;;;5092102;28;20382;-61
2022/01/18 00:49:24;;;;;;;27.95;14.35;;;5.80;99.90;;;;;;5091929;28;20382;-62
2022/01/18 00:51:55;;;;;;;29.88;14.60;;;5.70;99.90;;;;;;5087567;28;20410;-62
2022/01/18 00:54:25;;;;;;;30.42;14.55;;;5.60;99.90;;;;;;5085506;28;20381;-62
2022/01/18 00:56:53;;;;;;;28.63;13.90;;;6.60;99.90;;;;;;5078635;28;20401;-61
2022/01/18 00:59:19;;;;;;;32.45;14.90;;;5.50;99.90;;;;;;5091922;28;20410;-62
2022/01/18 01:01:45;;;;;;;27.40;14.20;;;5.50;99.90;;;;;;5091006;28;20406;-61
2022/01/18 01:04:11;;;;;;;27.20;14.00;;;5.50;99.90;;;;;;5092147;28;20480;-61
2022/01/18 01:06:37;;;;;;;30.50;14.95;;;5.60;99.90;;;;;;5090611;28;20913;-61
2022/01/18 01:09:04;;;;;;;29.42;14.85;;;5.50;99.90;;;;;;5091652;28;20435;-62
2022/01/18 01:11:29;;;;;;;30.63;14.38;;;5.50;99.90;;;;;;5090911;28;20468;-61
2022/01/18 01:14:00;;;;;;;30.27;15.57;;;5.50;99.90;;;;;;5091663;28;20883;-61
2022/01/18 01:33:17;;;;;;;28.85;14.38;;;5.60;99.90;;;;;;5090880;28;20381;-62
2022/01/18 01:43:30;;;;;;;24.95;12.68;;;5.90;99.90;;;;;;5091436;28;20385;-62
2022/01/18 01:45:58;;;;;;;25.80;13.93;;;6.40;99.90;;;;;;5091005;28;20479;-62
2022/01/18 01:48:25;;;;;;;26.07;14.40;;;5.60;99.90;;;;;;5091109;28;20984;-62
2022/01/18 01:50:55;;;;;;;27.95;14.50;;;5.60;99.90;;;;;;5088712;28;20389;-62
2022/01/18 01:53:24;;;;;;;27.10;14.55;;;5.60;99.90;;;;;;5091609;28;20684;-61
2022/01/18 01:55:52;;;;;;;26.55;13.55;;;5.50;99.90;;;;;;5090219;28;20469;-62
2022/01/18 01:58:22;;;;;;;28.83;13.70;;;5.50;99.90;;;;;;5091235;28;20731;-62
2022/01/18 02:00:54;;;;;;;29.40;14.75;;;5.50;99.90;;;;;;5089793;28;20409;-62
2022/01/18 02:03:20;;;;;;;28.48;13.88;;;5.50;99.90;;;;;;5089410;28;20386;-62
2022/01/18 02:05:46;;;;;;;28.85;13.68;;;5.50;99.90;;;;;;5089888;28;20419;-62
2022/01/18 02:08:13;;;;;;;26.65;14.20;;;5.50;99.90;;;;;;5082717;28;20451;-62
2022/01/18 02:10:40;;;;;;;28.90;14.20;;;5.60;99.90;;;;;;5072547;28;20406;-62
2022/01/18 02:13:07;;;;;;;27.30;14.93;;;5.60;99.90;;;;;;5090184;28;20835;-61
2022/01/18 02:15:39;;;;;;;24.70;13.23;;;5.60;99.90;;;;;;5071102;28;20415;-62
2022/01/18 02:23:33;;;;;;;25.90;13.43;;;5.70;99.90;;;;;;5068612;28;20437;-62
2022/01/18 02:25:59;;;;;;;27.93;13.80;;;5.60;99.90;;;;;;5070397;28;20384;-62
2022/01/18 02:28:26;;;;;;;28.70;14.77;;;5.60;99.90;;;;;;5102460;28;20380;-62
2022/01/18 02:30:53;;;;;;;26.88;13.60;;;5.60;99.90;;;;;;5069533;28;20415;-62
2022/01/18 02:33:19;;;;;;;28.92;13.60;;;5.70;99.90;;;;;;5069794;28;20880;-61
2022/01/18 02:35:46;;;;;;;27.20;14.30;;;5.70;99.90;;;;;;5069076;28;20486;-62
2022/01/18 02:38:12;;;;;;;25.60;13.55;;;5.70;99.90;;;;;;5102449;28;20465;-62
2022/01/18 02:40:38;;;;;;;28.88;14.27;;;5.70;99.90;;;;;;5068945;28;20456;-62
2022/01/18 02:45:55;;;;;;;27.48;13.55;;;6.50;99.90;;;;;;5072418;28;20449;-62
2022/01/18 02:48:21;;;;;;;28.63;13.38;;;5.80;99.90;;;;;;5069833;28;20472;-62
2022/01/18 02:50:48;;;;;;;26.90;14.00;;;5.80;99.90;;;;;;5068993;28;20380;-62
2022/01/18 02:53:16;;;;;;;30.35;15.10;;;5.80;99.90;;;;;;5069283;28;20808;-62
2022/01/18 02:55:43;;;;;;;29.38;14.82;;;5.80;99.90;;;;;;5068753;28;20387;-61
2022/01/18 02:58:10;;;;;;;29.65;14.65;;;5.80;99.90;;;;;;5069521;28;20375;-62
2022/01/18 03:03:11;;;;;;;27.33;13.13;;;5.60;99.90;;;;;;5101188;28;20399;-62
2022/01/18 03:03:26;;;;;;;29.67;15.60;;;5.50;99.90;;;;;;5069625;28;20479;-61
2022/01/18 03:05:52;;;;;;;30.60;14.80;;;4.50;99.90;;;;;;5069364;28;20885;-61
2022/01/18 03:08:18;;;;;;;32.42;15.88;;;5.40;99.90;;;;;;5069538;28;20475;-61
2022/01/18 03:10:44;;;;;;;31.67;15.07;;;5.40;99.90;;;;;;5068433;28;20478;-61
2022/01/18 03:13:10;;;;;;;37.05;17.10;;;5.50;99.90;;;;;;5069545;28;20861;-61
2022/01/18 03:15:36;;;;;;;34.90;15.80;;;5.70;99.90;;;;;;5100597;28;20954;-61
2022/01/18 03:18:03;;;;;;;35.22;16.38;;;5.40;99.90;;;;;;5069479;28;20805;-62
2022/01/18 03:20:30;;;;;;;33.83;15.85;;;5.40;99.90;;;;;;5069039;28;20478;-61
2022/01/18 03:22:55;;;;;;;35.78;16.23;;;5.50;99.90;;;;;;5069659;28;20380;-61
2022/01/18 03:28:06;;;;;;;33.80;16.27;;;5.40;99.90;;;;;;5068951;28;20403;-61
2022/01/18 03:30:37;;;;;;;38.38;17.10;;;5.30;99.90;;;;;;5069391;28;20383;-61
2022/01/18 03:33:17;;;;;;;35.78;17.05;;;5.20;99.90;;;;;;5069306;28;20388;-61
2022/01/18 03:35:44;;;;;;;36.95;16.50;;;5.10;99.90;;;;;;5068575;28;20725;-61
2022/01/18 03:38:11;;;;;;;35.75;17.48;;;5.20;99.90;;;;;;5067782;28;20742;-61
2022/01/18 03:40:37;;;;;;;35.05;17.40;;;6.20;99.90;;;;;;5068583;28;20407;-61
2022/01/18 03:43:06;;;;;;;34.80;16.42;;;6.30;99.90;;;;;;5068997;28;20375;-61
2022/01/18 03:45:39;;;;;;;36.75;16.30;;;5.40;99.90;;;;;;5068836;28;20423;-61
2022/01/18 03:48:08;;;;;;;34.75;16.67;;;5.50;99.90;;;;;;5068800;28;20472;-61
2022/01/18 03:50:34;;;;;;;31.77;15.48;;;5.50;99.90;;;;;;5077454;28;20384;-61
2022/01/18 03:53:00;;;;;;;36.78;17.38;;;5.40;99.90;;;;;;5101704;28;20849;-61
2022/01/18 03:55:26;;;;;;;31.67;15.13;;;5.40;99.90;;;;;;5069376;28;20367;-62
2022/01/18 03:57:52;;;;;;;32.90;16.13;;;5.30;99.90;;;;;;5068687;28;20391;-61
2022/01/18 04:00:23;;;;;;;40.50;17.40;;;5.90;99.90;;;;;;5068895;28;20379;-61
2022/01/18 04:02:51;;;;;;;36.42;16.90;;;5.30;99.90;;;;;;5068098;28;20403;-61
2022/01/18 04:05:17;;;;;;;41.42;18.40;;;5.20;99.90;;;;;;5068817;28;20718;-61
2022/01/18 04:07:48;;;;;;;36.97;16.67;;;5.30;99.90;;;;;;5068006;28;20849;-62
2022/01/18 04:10:14;;;;;;;37.33;17.48;;;5.20;99.90;;;;;;5101253;28;20400;-61
2022/01/18 04:12:40;;;;;;;38.13;17.93;;;5.10;99.90;;;;;;5068123;28;20368;-61
2022/01/18 04:15:09;;;;;;;43.75;18.50;;;5.10;99.90;;;;;;5071214;28;20407;-61
2022/01/18 04:28:35;;;;;;;38.15;17.80;;;5.20;99.90;;;;;;5072005;28;20387;-60
2022/01/18 04:31:03;;;;;;;39.50;19.05;;;5.10;99.90;;;;;;5096530;28;20396;-61
2022/01/18 04:33:28;;;;;;;40.30;18.00;;;5.00;99.90;;;;;;5096725;28;20404;-61
2022/01/18 04:35:54;;;;;;;37.50;17.30;;;5.00;99.90;;;;;;5098830;28;20378;-61
2022/01/18 04:38:20;;;;;;;39.77;19.17;;;5.10;99.90;;;;;;5102102;28;20383;-61
2022/01/18 04:40:47;;;;;;;43.00;19.73;;;5.20;99.90;;;;;;5097967;28;20405;-61
2022/01/18 04:43:23;;;;;;;40.13;18.95;;;5.30;99.90;;;;;;5100531;28;20393;-61
2022/01/18 04:48:35;;;;;;;41.83;18.48;;;5.40;99.90;;;;;;5096220;28;20423;-61
2022/01/18 04:51:10;;;;;;;38.20;18.50;;;5.30;99.90;;;;;;5100204;28;20384;-61
2022/01/18 04:53:39;;;;;;;38.85;18.17;;;5.20;99.90;;;;;;5095495;28;20390;-61
2022/01/18 04:56:15;;;;;;;38.05;19.25;;;5.10;99.90;;;;;;5101104;28;20382;-61
2022/01/18 04:58:41;;;;;;;35.65;18.55;;;5.30;99.90;;;;;;5091761;28;20398;-61
2022/01/18 05:01:09;;;;;;;42.75;18.70;;;5.60;99.90;;;;;;5100756;28;20414;-61
2022/01/18 05:03:35;;;;;;;40.67;18.13;;;5.30;99.90;;;;;;5096408;28;20388;-61
2022/01/18 05:06:07;;;;;;;37.70;17.65;;;5.30;99.90;;;;;;5100144;28;20384;-61
2022/01/18 05:08:32;;;;;;;42.13;18.90;;;5.30;99.90;;;;;;5102220;28;20385;-61
2022/01/18 05:10:58;;;;;;;38.47;17.23;;;5.30;99.90;;;;;;5099421;28;20734;-61
2022/01/18 05:13:49;;;;;;;34.77;17.33;;;5.40;99.90;;;;;;5101855;28;20456;-61
2022/01/18 05:21:26;;;;;;;42.35;18.98;;;5.60;99.90;;;;;;5096805;28;20738;-61
2022/01/18 05:23:52;;;;;;;34.93;17.67;;;5.60;99.90;;;;;;5100364;28;20485;-61
2022/01/18 05:26:18;;;;;;;37.38;17.30;;;5.60;99.90;;;;;;5101496;28;20391;-61
2022/01/18 05:28:44;;;;;;;36.20;17.80;;;5.70;99.90;;;;;;5099835;28;20378;-61
2022/01/18 05:31:09;;;;;;;37.90;17.40;;;5.70;99.90;;;;;;5103291;28;20475;-61
2022/01/18 05:33:35;;;;;;;40.83;18.85;;;5.90;99.90;;;;;;5092571;28;20394;-61
2022/01/18 05:36:02;;;;;;;38.25;18.10;;;5.80;99.90;;;;;;5099098;28;20376;-61
2022/01/18 05:38:29;;;;;;;38.25;17.80;;;5.80;99.90;;;;;;5100063;28;20376;-61
2022/01/18 05:40:55;;;;;;;39.33;18.85;;;5.70;99.90;;;;;;5100672;28;20422;-61
2022/01/18 05:43:20;;;;;;;36.08;17.30;;;5.70;99.90;;;;;;5100496;28;20821;-61
2022/01/18 05:45:46;;;;;;;42.07;19.30;;;5.70;99.90;;;;;;5101904;28;20384;-61
2022/01/18 05:48:12;;;;;;;41.13;18.52;;;5.70;99.90;;;;;;5099268;28;20465;-61
2022/01/18 05:50:37;;;;;;;37.60;17.63;;;6.20;99.90;;;;;;5101663;28;20402;-61
2022/01/18 05:53:03;;;;;;;38.70;18.17;;;5.70;99.90;;;;;;5100789;28;20380;-61
2022/01/18 05:55:28;;;;;;;41.38;18.23;;;5.70;99.90;;;;;;5097218;28;20380;-61
2022/01/18 05:57:54;;;;;;;37.53;18.13;;;5.80;99.90;;;;;;5082040;28;20380;-61
2022/01/18 06:00:22;;;;;;;34.92;16.65;;;5.70;99.90;;;;;;5085245;28;20461;-61
2022/01/18 06:08:01;;;;;;;37.63;17.48;;;5.80;99.90;;;;;;5087964;28;20418;-61
2022/01/18 06:10:27;;;;;;;34.10;17.70;;;5.80;99.90;;;;;;5086317;28;20770;-61
2022/01/18 06:12:52;;;;;;;38.80;17.92;;;5.70;99.90;;;;;;5079572;28;20397;-61
2022/01/18 06:15:18;;;;;;;36.80;17.60;;;5.70;99.90;;;;;;5087131;28;20461;-60
2022/01/18 06:17:45;;;;;;;37.20;17.65;;;5.70;99.90;;;;;;5103614;28;20857;-61
2022/01/18 06:20:11;;;;;;;37.35;18.40;;;5.70;99.90;;;;;;5100197;28;20519;-61
2022/01/18 06:22:37;;;;;;;41.00;19.23;;;5.70;99.90;;;;;;5080744;28;20403;-61
2022/01/18 06:25:06;;;;;;;37.70;18.13;;;5.70;99.90;;;;;;5081039;28;20511;-61
2022/01/18 06:27:32;;;;;;;41.50;19.23;;;5.60;99.90;;;;;;5096430;28;20378;-61
2022/01/18 06:29:58;;;;;;;41.77;19.63;;;5.60;99.90;;;;;;5093525;28;20391;-61
2022/01/18 06:32:24;;;;;;;56.95;28.35;;;5.70;99.90;;;;;;5085764;28;20408;-61
2022/01/18 06:34:51;;;;;;;55.35;24.73;;;5.70;99.90;;;;;;5073039;28;20423;-61
2022/01/18 06:37:16;;;;;;;46.67;19.67;;;5.80;99.90;;;;;;5088137;28;20381;-62
2022/01/18 06:39:42;;;;;;;44.70;20.57;;;5.80;99.90;;;;;;5086747;28;20765;-61
2022/01/18 06:42:14;;;;;;;40.42;20.88;;;5.80;99.90;;;;;;5083009;28;20411;-61
2022/01/18 06:44:40;;;;;;;38.93;19.53;;;5.80;99.90;;;;;;5079679;28;20397;-61
2022/01/18 06:47:06;;;;;;;39.45;19.95;;;5.70;99.90;;;;;;5078121;28;20394;-61
2022/01/18 06:49:32;;;;;;;39.07;18.67;;;5.70;99.90;;;;;;5071375;28;20388;-61
2022/01/18 06:51:57;;;;;;;42.70;21.00;;;5.70;99.90;;;;;;5088998;28;20406;-60
2022/01/18 06:54:23;;;;;;;47.03;21.73;;;4.90;99.90;;;;;;5089786;28;20374;-59
2022/01/18 06:56:50;;;;;;;54.73;23.80;;;5.70;99.90;;;;;;5088817;28;20397;-60
2022/01/18 06:59:17;;;;;;;55.67;24.30;;;5.70;99.90;;;;;;5089841;28;20390;-59
2022/01/18 07:01:43;;;;;;;52.90;22.70;;;5.80;99.90;;;;;;5088700;28;20402;-60
2022/01/18 07:04:09;;;;;;;52.33;23.02;;;5.80;99.90;;;;;;5086750;28;20459;-60
2022/01/18 07:06:35;;;;;;;50.00;22.80;;;5.90;99.90;;;;;;5085131;28;20881;-60
2022/01/18 07:09:01;;;;;;;48.13;20.90;;;5.90;99.90;;;;;;5089452;28;20374;-60
2022/01/18 07:11:27;;;;;;;45.33;21.70;;;6.80;99.90;;;;;;5089233;28;20378;-60
2022/01/18 07:13:52;;;;;;;43.80;21.70;;;6.40;99.90;;;;;;5088904;28;20662;-60
2022/01/18 07:16:18;;;;;;;43.90;21.50;;;5.80;99.90;;;;;;5086806;28;20522;-60
2022/01/18 07:18:44;;;;;;;40.17;18.92;;;5.80;99.90;;;;;;5080432;28;20828;-61
2022/01/18 07:21:10;;;;;;;41.90;19.27;;;5.80;99.90;;;;;;5074813;28;20494;-60
2022/01/18 07:23:37;;;;;;;42.70;20.23;;;5.70;99.90;;;;;;5085108;28;20392;-60
2022/01/18 07:26:03;;;;;;;38.92;19.58;;;5.70;99.90;;;;;;5089123;28;20374;-60
2022/01/18 07:28:29;;;;;;;46.25;21.30;;;5.70;99.90;;;;;;5088048;28;20744;-60
2022/01/18 07:30:55;;;;;;;41.60;20.35;;;5.60;99.90;;;;;;5087053;28;20397;-60
2022/01/18 07:33:20;;;;;;;46.72;20.83;;;5.60;99.90;;;;;;5088872;28;20847;-60
2022/01/18 07:35:47;;;;;;;48.87;21.40;;;5.60;99.90;;;;;;5086877;28;20852;-60
2022/01/18 07:38:16;;;;;;;42.50;21.50;;;5.60;99.90;;;;;;5089142;28;20377;-60
2022/01/18 07:40:47;;;;;;;43.75;20.80;;;5.70;99.90;;;;;;5088189;28;20433;-60
2022/01/18 07:43:16;;;;;;;44.67;19.70;;;5.80;99.90;;;;;;5089119;28;20374;-60
2022/01/18 07:45:43;;;;;;;42.47;21.20;;;6.00;99.90;;;;;;5088024;28;20389;-60
2022/01/18 07:48:08;;;;;;;42.05;19.67;;;5.80;99.90;;;;;;5089086;28;20765;-60
2022/01/18 07:50:34;;;;;;;37.65;18.92;;;5.90;99.90;;;;;;5091541;28;20381;-60
2022/01/18 07:53:00;;;;;;;39.60;20.20;;;6.00;99.90;;;;;;5092613;28;20877;-60
2022/01/18 07:55:26;;;;;;;41.08;20.80;;;5.90;99.90;;;;;;5092656;28;20442;-60
2022/01/18 07:57:52;;;;;;;42.10;21.17;;;5.90;99.90;;;;;;5092019;28;20397;-60
2022/01/18 08:00:18;;;;;;;38.33;19.50;;;6.00;99.90;;;;;;5092942;28;20775;-60
2022/01/18 08:02:44;;;;;;;43.35;18.67;;;5.90;99.90;;;;;;5083661;28;20457;-60
2022/01/18 08:05:12;;;;;;;45.40;20.80;;;6.00;99.90;;;;;;5081139;28;20811;-60
2022/01/18 08:07:37;;;;;;;42.45;20.10;;;5.90;99.90;;;;;;5086694;28;20380;-60
2022/01/18 08:10:06;;;;;;;42.67;18.50;;;5.90;99.90;;;;;;5072527;28;20382;-60
2022/01/18 08:12:31;;;;;;;39.20;17.80;;;5.90;99.90;;;;;;5076942;28;20422;-60
2022/01/18 08:15:02;;;;;;;37.75;16.70;;;6.00;99.90;;;;;;5088530;28;20760;-60
2022/01/18 08:17:29;;;;;;;30.92;15.00;;;6.00;99.90;;;;;;5091584;28;20471;-60
2022/01/18 08:19:55;;;;;;;36.25;16.98;;;5.90;99.90;;;;;;5088904;28;20397;-60
2022/01/18 08:22:21;;;;;;;33.50;15.80;;;5.90;99.90;;;;;;5084074;28;20410;-60
2022/01/18 08:24:46;;;;;;;35.47;18.13;;;6.00;99.90;;;;;;5082288;28;20384;-60
2022/01/18 08:27:12;;;;;;;40.17;18.57;;;6.00;99.90;;;;;;5092218;28;20464;-60
2022/01/18 08:29:38;;;;;;;30.33;14.25;;;6.20;99.90;;;;;;5089543;28;20402;-60
2022/01/18 08:32:05;;;;;;;30.87;15.03;;;7.10;99.90;;;;;;5092185;28;20802;-60
2022/01/18 08:34:31;;;;;;;38.30;16.45;;;6.40;99.90;;;;;;5090086;28;20402;-60
2022/01/18 08:36:57;;;;;;;28.70;14.27;;;6.60;99.90;;;;;;5085487;28;20928;-60
2022/01/18 08:39:22;;;;;;;30.40;14.43;;;6.80;99.90;;;;;;5087391;28;20852;-60
2022/01/18 08:41:48;;;;;;;30.50;15.20;;;7.00;99.90;;;;;;5091004;28;20410;-60
2022/01/18 08:44:14;;;;;;;32.73;15.13;;;6.90;99.90;;;;;;5091680;28;20382;-60
2022/01/18 08:46:40;;;;;;;30.45;13.50;;;6.90;99.90;;;;;;5091215;28;20440;-61
2022/01/18 08:49:06;;;;;;;29.10;14.83;;;6.80;99.90;;;;;;5087510;28;20436;-60
2022/01/18 08:51:33;;;;;;;29.48;14.73;;;6.80;99.90;;;;;;5086529;28;20497;-61
2022/01/18 08:53:59;;;;;;;25.50;14.37;;;6.90;99.90;;;;;;5087969;28;20370;-60
2022/01/18 08:56:25;;;;;;;28.67;14.30;;;7.10;99.90;;;;;;5091640;28;20449;-60
2022/01/18 08:58:51;;;;;;;26.70;14.02;;;7.10;99.90;;;;;;5088283;28;20417;-60
2022/01/18 09:01:17;;;;;;;28.05;13.45;;;7.20;99.90;;;;;;5086475;28;20504;-61
2022/01/18 09:03:42;;;;;;;25.25;13.02;;;7.10;99.90;;;;;;5085504;28;20405;-60
2022/01/18 09:06:12;;;;;;;37.90;17.77;;;7.10;99.90;;;;;;5086772;28;20413;-60
2022/01/18 09:08:37;;;;;;;36.70;16.65;;;7.20;99.90;;;;;;5090001;28;20402;-60
2022/01/18 09:11:04;;;;;;;31.40;16.17;;;7.50;99.90;;;;;;5091030;28;20386;-60
2022/01/18 09:13:33;;;;;;;38.10;19.07;;;7.60;99.90;;;;;;5091195;28;20383;-61
2022/01/18 09:16:00;;;;;;;32.97;17.05;;;7.60;99.90;;;;;;5085542;28;20409;-60
2022/01/18 09:18:26;;;;;;;21.40;11.00;;;7.70;99.90;;;;;;5088777;28;20385;-60
2022/01/18 09:20:52;;;;;;;21.50;11.88;;;7.70;99.90;;;;;;5090056;28;20497;-60
2022/01/18 09:23:17;;;;;;;24.13;11.70;;;7.80;99.90;;;;;;5090837;28;20412;-60
2022/01/18 09:25:43;;;;;;;24.17;12.77;;;7.90;99.90;;;;;;5088953;28;20382;-60
2022/01/18 09:28:09;;;;;;;23.80;11.80;;;7.90;99.90;;;;;;5085932;28;20986;-61
2022/01/18 09:30:36;;;;;;;23.13;11.43;;;8.10;99.90;;;;;;5089570;28;20457;-62
2022/01/18 09:33:06;;;;;;;26.33;12.50;;;8.60;99.90;;;;;;5090106;28;20378;-63
2022/01/18 09:35:33;;;;;;;23.20;12.45;;;9.00;99.90;;;;;;5090718;28;20382;-63
2022/01/18 09:37:59;;;;;;;21.97;11.80;;;9.50;99.90;;;;;;5081592;28;20671;-63
2022/01/18 09:40:25;;;;;;;21.58;11.65;;;10.00;99.90;;;;;;5090113;28;20863;-61
2022/01/18 09:42:54;;;;;;;19.75;12.00;;;;;;;;;;5089220;28;20418;-62
2022/01/18 09:45:23;;;;;;;23.13;17.65;;;;;;;;;;5080941;28;20415;-62
2022/01/18 09:47:51;;;;;;;24.02;20.02;;;;;;;;;;5069787;28;20467;-62
2022/01/18 09:50:22;;;;;;;26.00;23.20;;;14.80;99.90;;;;;;5082986;28;20404;-62
2022/01/18 09:52:53;;;;;;;23.63;21.30;;;13.70;99.90;;;;;;5087981;28;20885;-61
2022/01/18 09:55:20;;;;;;;21.65;19.45;;;13.60;99.90;;;;;;5098584;28;20906;-61
2022/01/18 09:57:46;;;;;;;22.45;19.63;;;13.00;99.90;;;;;;5093730;28;20886;-61
2022/01/18 10:00:12;;;;;;;26.60;17.73;;;12.10;99.90;;;;;;5090362;28;20381;-61
2022/01/18 10:02:38;;;;;;;22.05;14.18;;;11.50;99.90;;;;;;5090279;28;20394;-63
2022/01/18 10:05:28;;;;;;;20.70;13.02;;;11.00;99.90;;;;;;5090346;28;20866;-63
2022/01/18 10:08:05;;;;;;;22.67;12.10;;;10.60;99.90;;;;;;5090376;28;20392;-65
2022/01/18 10:10:37;;;;;;;20.65;12.15;;;10.70;99.90;;;;;;5101380;28;20477;-64
2022/01/18 10:13:23;;;;;;;21.38;11.38;;;11.10;99.90;;;;;;5101935;28;20445;-62
2022/01/18 10:16:13;;;;;;;21.80;11.07;;;10.80;99.90;;;;;;5100842;28;20436;-63
2022/01/18 10:18:48;;;;;;;17.27;10.50;;;11.00;99.90;;;;;;5077271;28;20451;-63
2022/01/18 10:21:36;;;;;;;20.33;10.90;;;11.00;99.90;;;;;;5088088;28;20416;-63
2022/01/18 10:24:20;;;;;;;17.80;9.80;;;10.60;99.90;;;;;;5091246;28;20403;-63
2022/01/18 10:26:48;;;;;;;20.15;9.38;;;10.00;99.90;;;;;;5088732;28;20521;-64
2022/01/18 10:29:15;;;;;;;16.60;8.70;;;9.80;99.90;;;;;;5091693;28;20394;-63
2022/01/18 10:34:41;;;;;;;18.35;9.40;;;9.70;99.90;;;;;;5069141;28;20406;-63
2022/01/18 10:37:09;;;;;;;15.85;8.48;;;9.70;99.90;;;;;;5069450;28;20427;-63
2022/01/18 10:39:38;;;;;;;18.88;8.68;;;9.70;99.90;;;;;;5069714;28;20380;-63
2022/01/18 10:42:48;;;;;;;18.38;7.97;;;9.40;99.90;;;;;;5069069;28;20415;-63
2022/01/18 10:45:28;;;;;;;16.55;7.72;;;9.60;99.90;;;;;;5040125;28;20411;-63
2022/01/18 10:48:11;;;;;;;19.15;8.63;;;9.50;99.90;;;;;;5068603;28;20821;-63
2022/01/18 10:50:41;;;;;;;17.00;8.07;;;9.70;99.90;;;;;;5069623;28;20410;-63
2022/01/18 10:53:14;;;;;;;16.27;7.65;;;9.80;99.90;;;;;;5101830;28;20398;-63
2022/01/18 10:55:40;;;;;;;13.57;6.70;;;9.70;99.90;;;;;;5069455;28;20460;-63
2022/01/18 10:58:15;;;;;;;14.13;7.40;;;9.40;99.90;;;;;;5069323;28;20471;-63
2022/01/18 11:00:41;;;;;;;14.85;7.65;;;9.40;99.90;;;;;;5069272;28;20451;-63
2022/01/18 11:03:07;;;;;;;16.98;8.20;;;9.30;99.90;;;;;;5069533;28;20390;-63
2022/01/18 11:05:35;;;;;;;15.45;7.85;;;9.40;99.90;;;;;;5069383;28;20475;-63
2022/01/18 11:08:04;;;;;;;19.13;8.82;;;8.80;99.90;;;;;;5068694;28;20459;-61
2022/01/18 11:10:39;;;;;;;19.98;8.90;;;8.50;99.90;;;;;;5068268;28;20462;-61
2022/01/18 11:13:20;;;;;;;19.58;9.48;;;8.40;99.90;;;;;;5070839;28;20463;-62
2022/01/18 11:15:49;;;;;;;17.70;7.90;;;8.40;99.90;;;;;;5088712;28;20806;-61
2022/01/18 11:18:25;;;;;;;19.25;8.30;;;8.50;99.90;;;;;;5089540;28;20382;-61
2022/01/18 11:20:51;;;;;;;15.93;5.70;;;8.60;99.90;;;;;;5088397;28;20386;-61
2022/01/18 11:23:17;;;;;;;11.23;4.00;;;8.60;99.90;;;;;;5091993;28;20384;-61
2022/01/18 11:25:45;;;;;;;11.35;4.38;;;8.40;99.90;;;;;;5095488;28;20381;-62
2022/01/18 11:28:12;;;;;;;12.00;4.80;;;8.60;99.90;;;;;;5096228;28;20370;-61
2022/01/18 11:30:41;;;;;;;11.05;4.40;;;9.00;99.90;;;;;;5096237;28;20378;-62
2022/01/18 11:33:10;;;;;;;16.98;7.00;;;9.60;99.90;;;;;;5095936;28;20400;-62
2022/01/18 11:36:02;;;;;;;16.75;8.00;;;9.60;99.90;;;;;;5096048;28;20855;-63
2022/01/18 11:38:48;;;;;;;19.33;9.77;;;9.10;99.90;;;;;;5096580;28;20374;-63
2022/01/18 11:41:29;;;;;;;18.42;9.40;;;8.60;99.90;;;;;;5096030;28;20890;-63
2022/01/18 11:43:56;;;;;;;25.90;10.80;;;7.70;99.90;;;;;;5095248;28;20393;-63
2022/01/18 11:46:38;;;;;;;22.52;8.95;;;7.90;99.90;;;;;;5096315;28;20382;-63
2022/01/18 11:49:05;;;;;;;32.03;12.60;;;7.70;99.90;;;;;;5095211;28;20374;-60
2022/01/18 11:51:35;;;;;;;19.38;10.00;;;7.50;99.90;;;;;;5094819;28;20397;-60
2022/01/18 11:54:31;;;;;;;17.83;8.63;;;7.50;99.90;;;;;;5095206;28;20374;-60
2022/01/18 11:56:58;;;;;;;16.93;8.47;;;7.50;99.90;;;;;;5095087;28;20378;-60
2022/01/18 11:59:26;;;;;;;17.88;8.02;;;7.60;99.90;;;;;;5095830;28;20408;-60
2022/01/18 12:02:02;;;;;;;18.75;9.32;;;7.40;99.90;;;;;;5095007;28;20409;-60
2022/01/18 12:07:06;;;;;;;14.53;6.90;;;7.70;99.90;;;;;;5095156;28;20384;-61
2022/01/18 12:09:42;;;;;;;18.02;7.30;;;7.90;99.90;;;;;;5095792;28;20496;-61
2022/01/18 12:12:49;;;;;;;10.02;5.13;;;8.20;99.90;;;;;;5095609;28;20388;-60
2022/01/18 12:15:18;;;;;;;13.02;5.00;;;8.10;99.90;;;;;;5075323;28;20395;-59
2022/01/18 12:17:53;;;;;;;15.20;4.43;;;8.10;99.90;;;;;;5075256;28;20411;-60
2022/01/18 12:20:44;;;;;;;11.32;4.40;;;8.00;99.90;;;;;;5074009;28;20418;-61
2022/01/18 12:23:20;;;;;;;12.17;4.80;;;8.00;99.90;;;;;;5075537;28;20395;-61
2022/01/18 12:25:56;;;;;;;9.02;4.03;;;8.00;99.90;;;;;;5074959;28;20843;-60
2022/01/18 12:28:49;;;;;;;9.17;4.40;;;8.10;99.90;;;;;;5075148;28;20475;-60
2022/01/18 12:34:24;;;;;;;10.02;4.28;;;8.20;99.90;;;;;;5056347;28;20391;-63
2022/01/18 12:36:54;;;;;;;9.60;3.00;;;8.40;99.90;;;;;;5071196;28;20384;-61
2022/01/18 12:39:21;;;;;;;7.40;2.95;;;8.40;99.90;;;;;;5072239;28;20383;-61
2022/01/18 12:41:53;;;;;;;8.30;2.87;;;8.20;99.90;;;;;;5070875;28;20895;-61
2022/01/18 12:44:20;;;;;;;9.73;2.92;;;8.00;99.90;;;;;;5071695;28;20414;-61
2022/01/18 12:46:58;;;;;;;9.73;2.95;;;8.10;99.90;;;;;;5070391;28;20403;-61
2022/01/18 12:49:25;;;;;;;9.00;3.20;;;8.10;99.90;;;;;;5071775;28;20478;-62
2022/01/18 12:51:58;;;;;;;11.15;3.00;;;8.30;99.90;;;;;;5070766;28;20396;-62
2022/01/18 12:54:37;;;;;;;9.40;3.40;;;8.40;99.90;;;;;;5071807;28;20403;-61
2022/01/18 12:57:22;;;;;;;7.72;2.35;;;8.80;99.90;;;;;;5070470;28;20467;-62
2022/01/18 13:00:08;;;;;;;7.57;2.50;;;8.90;99.90;;;;;;5070908;28;20379;-61
2022/01/18 13:02:34;;;;;;;7.95;2.65;;;8.80;99.90;;;;;;5071438;28;20505;-61
2022/01/18 13:05:04;;;;;;;7.43;2.65;;;8.50;99.90;;;;;;5070955;28;20375;-62
2022/01/18 13:07:29;;;;;;;6.80;2.80;;;8.30;99.90;;;;;;5071672;28;20376;-62
2022/01/18 13:09:57;;;;;;;8.70;2.20;;;8.40;99.90;;;;;;5070800;28;20386;-61
2022/01/18 13:12:34;;;;;;;7.50;2.60;;;8.20;99.90;;;;;;5071301;28;20478;-61
2022/01/18 13:15:03;;;;;;;8.35;2.85;;;8.10;99.90;;;;;;5088584;28;20406;-61
2022/01/18 13:23:19;;;;;;;9.32;3.47;;;8.30;99.90;;;;;;5091650;28;20443;-62
2022/01/18 13:25:52;;;;;;;10.20;3.40;;;8.40;99.90;;;;;;5090508;28;20370;-63
2022/01/18 13:28:19;;;;;;;7.45;2.90;;;8.30;99.90;;;;;;5091862;28;20831;-62
2022/01/18 13:30:45;;;;;;;8.30;2.97;;;8.40;99.90;;;;;;5089618;28;20752;-63
2022/01/18 13:33:12;;;;;;;11.27;3.80;;;8.50;99.90;;;;;;5091654;28;20465;-62
2022/01/18 13:35:38;;;;;;;10.77;4.28;;;8.70;99.90;;;;;;5091470;28;20405;-62
2022/01/18 13:38:04;;;;;;;11.00;4.35;;;8.50;99.90;;;;;;5089848;28;20406;-61
2022/01/18 13:40:31;;;;;;;11.35;3.78;;;8.20;99.90;;;;;;5089800;28;20803;-60
2022/01/18 13:43:10;;;;;;;10.80;2.80;;;8.20;99.90;;;;;;5090326;28;20485;-60
2022/01/18 13:45:40;;;;;;;12.40;4.00;;;8.10;99.90;;;;;;5089505;28;20405;-62
2022/01/18 13:48:08;;;;;;;9.50;4.30;;;8.10;99.90;;;;;;5089214;28;20396;-61
2022/01/18 13:50:45;;;;;;;11.70;4.47;;;8.10;99.90;;;;;;5091001;28;20464;-60
2022/01/18 13:53:14;;;;;;;10.68;4.03;;;8.10;99.90;;;;;;5090931;28;20385;-61
2022/01/18 13:55:48;;;;;;;9.75;3.97;;;7.90;99.90;;;;;;5090957;28;20374;-61
2022/01/18 13:58:26;;;;;;;11.98;4.93;;;7.90;99.90;;;;;;5089063;28;20401;-60
2022/01/18 14:01:04;;;;;;;11.45;4.25;;;8.10;99.90;;;;;;5089877;28;20722;-61
2022/01/18 14:03:32;;;;;;;8.82;2.90;;;8.10;99.90;;;;;;5090469;28;20843;-60
2022/01/18 14:05:58;;;;;;;7.70;3.38;;;8.00;99.90;;;;;;5089984;28;20385;-60
2022/01/18 14:08:31;;;;;;;9.03;3.60;;;8.00;99.90;;;;;;5090362;28;20378;-60
2022/01/18 14:11:06;;;;;;;8.88;3.50;;;7.90;99.90;;;;;;5089172;28;20472;-60
2022/01/18 14:13:36;;;;;;;9.48;2.28;;;7.90;99.90;;;;;;5090316;28;20747;-60